Time;durP1;ratioP1;P1;durP2;ratioP2;P2;SDS_P1;SDS_P2;PMS_P1;PMS_P2;Temp;Humidity;BMP_temperature;BMP_pressure;BME280_temperature;BME280_humidity;BME280_pressure;Samples;Min_cycle;Max_cycle;Signal;HPM_P1;HPM_P2
2022/07/21 00:02:24;;;;;;;7.47;6.10;;;;;;;;;;5094528;28;20219;-64
2022/07/21 00:04:53;;;;;;;6.73;5.10;;;;;;;;;;5094596;28;20227;-64
2022/07/21 00:07:21;;;;;;;6.73;5.33;;;;;;;;;;5093427;28;20235;-64
2022/07/21 00:09:48;;;;;;;10.37;6.07;;;;;;;;;;5094055;28;20202;-64
2022/07/21 00:12:18;;;;;;;10.70;5.73;;;;;;;;;;5088901;28;20241;-65
2022/07/21 00:14:46;;;;;;;5.53;4.63;;;;;;;;;;5091291;28;20254;-64
2022/07/21 00:17:14;;;;;;;5.87;5.27;;;;;;;;;;5089617;28;20237;-64
2022/07/21 00:19:42;;;;;;;7.10;4.93;;;;;;;;;;5092142;28;20197;-64
2022/07/21 00:22:10;;;;;;;6.77;5.40;;;;;;;;;;5078324;28;20229;-65
2022/07/21 00:24:38;;;;;;;7.20;5.80;;;;;;;;;;5096412;28;20269;-64
2022/07/21 00:27:06;;;;;;;5.83;5.23;;;;;;;;;;5103231;28;20230;-64
2022/07/21 00:29:35;;;;;;;9.50;5.10;;;;;;;;;;5103083;28;20670;-64
2022/07/21 00:32:05;;;;;;;6.07;4.97;;;;;;;;;;5091161;28;20238;-64
2022/07/21 00:34:33;;;;;;;5.93;5.33;;;;;;;;;;5084204;28;20685;-64
2022/07/21 00:37:01;;;;;;;10.40;5.10;;;;;;;;;;5092048;28;20213;-64
2022/07/21 00:39:29;;;;;;;6.87;5.07;;;;;;;;;;5085907;28;20205;-64
2022/07/21 00:41:57;;;;;;;6.70;4.70;;;;;;;;;;5097742;28;20236;-64
2022/07/21 00:44:26;;;;;;;7.37;5.27;;;;;;;;;;5088863;28;20261;-64
2022/07/21 00:46:56;;;;;;;5.87;4.90;;;;;;;;;;5103617;28;20236;-64
2022/07/21 00:49:24;;;;;;;8.57;5.63;;;;;;;;;;5081233;28;20216;-64
2022/07/21 00:51:52;;;;;;;6.23;5.30;;;;;;;;;;5092359;28;20244;-64
2022/07/21 00:54:20;;;;;;;5.57;4.50;;;;;;;;;;5097591;28;20217;-64
2022/07/21 00:56:48;;;;;;;8.97;5.00;;;;;;;;;;5098671;28;20205;-65
2022/07/21 00:59:17;;;;;;;7.93;4.53;;;;;;;;;;5102026;28;20217;-69
2022/07/21 01:01:45;;;;;;;6.03;5.10;;;;;;;;;;5096682;28;20214;-69
2022/07/21 01:04:14;;;;;;;5.97;4.77;;;;;;;;;;5083615;28;20231;-69
2022/07/21 01:06:42;;;;;;;7.53;4.70;;;;;;;;;;5082132;28;20266;-68
2022/07/21 01:09:10;;;;;;;4.90;4.50;;;;;;;;;;5082400;28;20210;-69
2022/07/21 01:11:39;;;;;;;8.13;4.90;;;;;;;;;;5100633;28;20201;-68
2022/07/21 01:14:07;;;;;;;4.93;4.37;;;;;;;;;;5112321;28;20273;-69
2022/07/21 01:16:35;;;;;;;5.87;4.40;;;;;;;;;;5118544;28;20203;-69
2022/07/21 01:19:03;;;;;;;4.80;4.27;;;;;;;;;;5117793;28;20207;-68
2022/07/21 01:21:33;;;;;;;5.23;4.50;;;;;;;;;;5088994;28;20257;-68
2022/07/21 01:24:02;;;;;;;7.80;4.53;;;;;;;;;;5100886;28;20236;-69
2022/07/21 01:26:30;;;;;;;7.27;4.80;;;;;;;;;;5099454;28;20237;-68
2022/07/21 01:28:58;;;;;;;5.10;4.17;;;;;;;;;;5095784;28;20233;-69
2022/07/21 01:31:26;;;;;;;5.23;4.73;;;;;;;;;;5109801;28;20203;-68
2022/07/21 01:33:54;;;;;;;7.77;5.23;;;;;;;;;;5098017;28;20913;-68
2022/07/21 01:36:22;;;;;;;5.37;4.87;;;;;;;;;;5096346;28;20288;-68
2022/07/21 01:41:37;;;;;;;6.17;4.23;;;;;;;;;;5097276;28;20215;-69
2022/07/21 01:44:06;;;;;;;5.23;4.50;;;;;;;;;;5100655;28;20224;-69
2022/07/21 01:46:35;;;;;;;4.90;3.97;;;;;;;;;;5094994;28;20234;-69
2022/07/21 01:49:04;;;;;;;5.83;4.50;;;;;;;;;;5093540;28;20289;-68
2022/07/21 01:51:32;;;;;;;5.13;4.60;;;;;;;;;;5100238;28;20609;-68
2022/07/21 01:54:02;;;;;;;7.73;4.20;;;;;;;;;;5091211;28;20232;-69
2022/07/21 01:56:30;;;;;;;6.33;3.90;;;;;;;;;;5096139;28;20214;-68
2022/07/21 01:58:58;;;;;;;5.30;4.17;;;;;;;;;;5099955;28;20202;-68
2022/07/21 02:01:28;;;;;;;4.87;4.40;;;;;;;;;;5089601;28;20201;-68
2022/07/21 02:03:57;;;;;;;4.37;3.97;;;;;;;;;;5098815;28;20263;-68
2022/07/21 02:06:26;;;;;;;4.50;4.10;;;;;;;;;;5094130;28;20235;-68
2022/07/21 02:08:54;;;;;;;8.03;4.03;;;;;;;;;;5098840;28;20263;-69
2022/07/21 02:11:24;;;;;;;5.47;4.20;;;;;;;;;;5088660;28;20224;-68
2022/07/21 02:13:52;;;;;;;5.03;4.10;;;;;;;;;;5095805;28;20250;-68
2022/07/21 02:16:20;;;;;;;6.00;4.03;;;;;;;;;;5096641;28;20206;-69
2022/07/21 02:18:48;;;;;;;5.37;4.50;;;;;;;;;;5091216;28;20235;-68
2022/07/21 02:21:16;;;;;;;4.80;3.57;;;;;;;;;;5087731;28;20290;-69
2022/07/21 02:23:45;;;;;;;7.37;4.03;;;;;;;;;;5090636;28;20242;-68
2022/07/21 02:26:12;;;;;;;6.97;4.00;;;;;;;;;;5093342;28;20227;-68
2022/07/21 02:28:42;;;;;;;4.87;4.10;;;;;;;;;;5096984;28;20208;-69
2022/07/21 02:31:10;;;;;;;6.37;3.63;;;;;;;;;;5105816;28;20248;-69
2022/07/21 02:33:38;;;;;;;3.90;3.50;;;;;;;;;;5091650;28;20259;-69
2022/07/21 02:36:06;;;;;;;5.20;3.80;;;;;;;;;;5097876;28;20281;-70
2022/07/21 02:38:34;;;;;;;5.53;3.60;;;;;;;;;;5111154;28;20653;-69
2022/07/21 02:41:03;;;;;;;6.60;3.60;;;;;;;;;;5085802;28;20293;-69
2022/07/21 02:43:31;;;;;;;5.43;3.40;;;;;;;;;;5098459;28;20224;-68
2022/07/21 02:46:00;;;;;;;4.57;3.67;;;;;;;;;;5096286;28;20217;-69
2022/07/21 02:48:28;;;;;;;5.47;3.73;;;;;;;;;;5088501;28;20213;-68
2022/07/21 02:50:56;;;;;;;4.93;3.77;;;;;;;;;;5098666;28;20224;-68
2022/07/21 02:53:24;;;;;;;4.03;3.63;;;;;;;;;;5088137;28;20233;-69
2022/07/21 02:55:53;;;;;;;5.07;3.53;;;;;;;;;;5097513;28;20564;-69
2022/07/21 02:58:22;;;;;;;4.37;3.47;;;;;;;;;;5091144;28;20239;-69
2022/07/21 03:00:50;;;;;;;3.67;3.37;;;;;;;;;;5092205;28;20240;-69
2022/07/21 03:03:20;;;;;;;5.90;3.83;;;;;;;;;;5084277;28;20221;-68
2022/07/21 03:05:48;;;;;;;6.00;4.10;;;;;;;;;;5079533;28;20694;-69
2022/07/21 03:08:17;;;;;;;4.67;3.53;;;;;;;;;;5085383;28;20296;-69
2022/07/21 03:10:45;;;;;;;6.70;3.90;;;;;;;;;;5089812;28;20212;-69
2022/07/21 03:13:13;;;;;;;6.40;4.10;;;;;;;;;;5097194;28;20583;-69
2022/07/21 03:15:41;;;;;;;5.87;3.93;;;;;;;;;;5100124;28;20255;-69
2022/07/21 03:18:09;;;;;;;5.37;3.83;;;;;;;;;;5084728;28;20256;-69
2022/07/21 03:20:39;;;;;;;5.57;3.67;;;;;;;;;;5080338;28;20294;-69
2022/07/21 03:23:08;;;;;;;5.57;3.60;;;;;;;;;;5040647;28;1285482;-69
2022/07/21 03:25:36;;;;;;;3.70;3.40;;;;;;;;;;5089172;28;20233;-69
2022/07/21 03:28:04;;;;;;;7.07;4.23;;;;;;;;;;5086581;28;20255;-69
2022/07/21 03:30:32;;;;;;;4.23;3.70;;;;;;;;;;5107287;28;20238;-69
2022/07/21 03:33:00;;;;;;;4.00;3.50;;;;;;;;;;5101423;28;20209;-69
2022/07/21 03:35:28;;;;;;;6.73;4.43;;;;;;;;;;5098800;28;20235;-69
2022/07/21 03:37:59;;;;;;;5.17;4.20;;;;;;;;;;5098385;28;20204;-70
2022/07/21 03:40:28;;;;;;;6.70;4.23;;;;;;;;;;5108648;28;20237;-69
2022/07/21 03:42:57;;;;;;;6.30;4.13;;;;;;;;;;5098841;28;20237;-69
2022/07/21 03:45:26;;;;;;;6.03;4.37;;;;;;;;;;5110737;28;20696;-69
2022/07/21 03:47:54;;;;;;;4.63;4.10;;;;;;;;;;5085221;28;20613;-69
2022/07/21 03:50:22;;;;;;;8.47;4.37;;;;;;;;;;5110885;28;20208;-65
2022/07/21 03:52:50;;;;;;;5.17;4.67;;;;;;;;;;5108727;28;20728;-64
2022/07/21 03:55:20;;;;;;;8.03;4.37;;;;;;;;;;5111393;28;20256;-64
2022/07/21 03:57:48;;;;;;;6.67;4.50;;;;;;;;;;5112698;28;20242;-64
2022/07/21 04:00:17;;;;;;;4.50;3.90;;;;;;;;;;5098123;28;20211;-64
2022/07/21 04:02:46;;;;;;;6.70;5.10;;;;;;;;;;5098297;28;20214;-65
2022/07/21 04:05:15;;;;;;;7.37;4.80;;;;;;;;;;5100161;28;20270;-64
2022/07/21 04:07:44;;;;;;;6.67;4.50;;;;;;;;;;5084318;28;20667;-65
2022/07/21 04:10:13;;;;;;;5.47;4.47;;;;;;;;;;5093667;28;20230;-65
2022/07/21 04:12:43;;;;;;;6.17;4.77;;;;;;;;;;5088709;28;20197;-65
2022/07/21 04:15:11;;;;;;;5.20;4.03;;;;;;;;;;5086755;28;20207;-65
2022/07/21 04:17:40;;;;;;;6.63;4.60;;;;;;;;;;5097650;28;20613;-65
2022/07/21 04:20:09;;;;;;;6.47;5.10;;;;;;;;;;5090335;28;20213;-65
2022/07/21 04:22:38;;;;;;;7.03;4.87;;;;;;;;;;5096456;28;20243;-65
2022/07/21 04:25:06;;;;;;;12.43;4.80;;;;;;;;;;5085688;28;20618;-65
2022/07/21 04:27:34;;;;;;;6.93;4.50;;;;;;;;;;5096763;28;20691;-65
2022/07/21 04:30:05;;;;;;;5.60;4.17;;;;;;;;;;5097290;28;20321;-65
2022/07/21 04:32:33;;;;;;;8.93;4.43;;;;;;;;;;5085656;28;20741;-65
2022/07/21 04:35:01;;;;;;;8.27;4.97;;;;;;;;;;5095497;28;20271;-64
2022/07/21 04:37:29;;;;;;;5.83;4.20;;;;;;;;;;5082301;28;20211;-64
2022/07/21 04:39:57;;;;;;;10.67;4.17;;;;;;;;;;5098494;28;20238;-63
2022/07/21 04:42:25;;;;;;;7.23;4.93;;;;;;;;;;5102953;28;20220;-64
2022/07/21 04:44:54;;;;;;;6.13;4.60;;;;;;;;;;5089054;28;20374;-64
2022/07/21 04:47:24;;;;;;;4.87;4.17;;;;;;;;;;5105815;28;20216;-64
2022/07/21 04:49:52;;;;;;;7.40;4.40;;;;;;;;;;5109450;28;20233;-63
2022/07/21 04:52:20;;;;;;;11.30;4.40;;;;;;;;;;5096557;28;20261;-64
2022/07/21 04:54:48;;;;;;;10.70;4.37;;;;;;;;;;5084780;28;20695;-63
2022/07/21 04:57:16;;;;;;;8.97;4.30;;;;;;;;;;5083916;28;20605;-64
2022/07/21 04:59:44;;;;;;;6.77;4.17;;;;;;;;;;5085893;28;20232;-63
2022/07/21 05:02:12;;;;;;;5.27;3.53;;;;;;;;;;5101877;28;20208;-63
2022/07/21 05:04:41;;;;;;;6.83;3.63;;;;;;;;;;5099276;28;20223;-63
2022/07/21 05:07:09;;;;;;;7.80;3.83;;;;;;;;;;5088541;28;20633;-62
2022/07/21 05:09:37;;;;;;;7.13;3.90;;;;;;;;;;5087884;28;20606;-62
2022/07/21 05:12:06;;;;;;;5.73;3.27;;;;;;;;;;5086963;28;20228;-63
2022/07/21 05:14:34;;;;;;;6.60;3.80;;;;;;;;;;5090787;28;20250;-64
2022/07/21 05:17:02;;;;;;;7.63;4.27;;;;;;;;;;5097508;28;20251;-62
2022/07/21 05:19:30;;;;;;;7.17;3.90;;;;;;;;;;5079298;28;20198;-64
2022/07/21 05:21:59;;;;;;;5.03;3.50;;;;;;;;;;5085804;28;20209;-63
2022/07/21 05:24:28;;;;;;;3.70;3.27;;;;;;;;;;5082954;28;20256;-63
2022/07/21 05:26:56;;;;;;;3.43;2.90;;;;;;;;;;5087928;28;20284;-63
2022/07/21 05:29:24;;;;;;;5.57;3.10;;;;;;;;;;5083854;28;20234;-63
2022/07/21 05:31:52;;;;;;;3.67;3.20;;;;;;;;;;5090796;28;20212;-65
2022/07/21 05:34:20;;;;;;;6.90;3.03;;;;;;;;;;5085474;28;20254;-64
2022/07/21 05:36:48;;;;;;;6.10;3.30;;;;;;;;;;5080879;28;20228;-63
2022/07/21 05:39:18;;;;;;;4.90;3.33;;;;;;;;;;5088659;28;20219;-65
2022/07/21 05:41:46;;;;;;;6.43;3.47;;;;;;;;;;5082864;28;20194;-65
2022/07/21 05:44:14;;;;;;;6.27;3.20;;;;;;;;;;5097532;28;20267;-65
2022/07/21 05:46:42;;;;;;;6.93;2.93;;;;;;;;;;5089147;28;20281;-65
2022/07/21 05:49:10;;;;;;;3.80;2.90;;;;;;;;;;5088571;28;20212;-64
2022/07/21 05:51:38;;;;;;;4.00;2.80;;;;;;;;;;5092236;28;20235;-65
2022/07/21 05:54:06;;;;;;;4.57;2.83;;;;;;;;;;5088849;28;20261;-64
2022/07/21 05:56:35;;;;;;;3.10;2.80;;;;;;;;;;5097653;28;20202;-65
2022/07/21 05:59:03;;;;;;;8.23;3.20;;;;;;;;;;5097424;28;20228;-64
2022/07/21 06:01:31;;;;;;;10.70;3.67;;;;;;;;;;5094545;28;20228;-65
2022/07/21 06:04:00;;;;;;;4.40;3.00;;;;;;;;;;5093078;28;20224;-64
2022/07/21 06:06:28;;;;;;;6.40;3.23;;;;;;;;;;5088686;28;20202;-64
2022/07/21 06:08:56;;;;;;;5.03;3.20;;;;;;;;;;5097451;28;20211;-64
2022/07/21 06:11:24;;;;;;;4.40;2.90;;;;;;;;;;5093571;28;20210;-65
2022/07/21 06:13:56;;;;;;;6.90;2.77;;;;;;;;;;5095096;28;20226;-65
2022/07/21 06:16:24;;;;;;;9.73;3.40;;;;;;;;;;5100307;28;20228;-64
2022/07/21 06:18:52;;;;;;;3.20;2.90;;;;;;;;;;5093534;28;20280;-64
2022/07/21 06:21:21;;;;;;;6.27;2.80;;;;;;;;;;5098668;28;20214;-64
2022/07/21 06:23:49;;;;;;;3.20;2.60;;;;;;;;;;5103238;28;20242;-64
2022/07/21 06:26:18;;;;;;;4.20;3.07;;;;;;;;;;5100068;28;20203;-64
2022/07/21 06:28:46;;;;;;;5.43;3.07;;;;;;;;;;5080369;28;20223;-64
2022/07/21 06:31:16;;;;;;;5.20;3.50;;;;;;;;;;5099158;28;20212;-64
2022/07/21 06:33:44;;;;;;;4.77;3.03;;;;;;;;;;5099996;28;20232;-64
2022/07/21 06:36:12;;;;;;;3.07;2.77;;;;;;;;;;5088430;28;20297;-63
2022/07/21 06:38:40;;;;;;;3.70;2.97;;;;;;;;;;5080819;28;20606;-67
2022/07/21 06:41:08;;;;;;;4.53;3.20;;;;;;;;;;5093583;28;20240;-64
2022/07/21 06:43:36;;;;;;;6.77;3.90;;;;;;;;;;5084434;28;20255;-64
2022/07/21 06:46:04;;;;;;;5.80;3.00;;;;;;;;;;5099875;28;20254;-64
2022/07/21 06:48:33;;;;;;;6.00;3.00;;;;;;;;;;5098747;28;20213;-64
2022/07/21 06:51:02;;;;;;;6.90;3.40;;;;;;;;;;5087359;28;20241;-64
2022/07/21 06:53:30;;;;;;;3.83;2.47;;;;;;;;;;5097409;28;20703;-64
2022/07/21 06:55:58;;;;;;;4.00;2.97;;;;;;;;;;5092863;28;20210;-64
2022/07/21 06:58:32;;;;;;;12.03;4.27;;;;;;;;;;5098565;27;20254;-64
2022/07/21 07:01:06;;;;;;;6.80;3.13;;;;;;;;;;5093345;28;20214;-62
2022/07/21 07:03:36;;;;;;;3.17;2.87;;;;;;;;;;5089761;28;20223;-63
2022/07/21 07:06:05;;;;;;;5.57;3.07;;;;;;;;;;5099212;28;20207;-64
2022/07/21 07:08:33;;;;;;;8.67;2.80;;;;;;;;;;5095728;28;20254;-63
2022/07/21 07:11:07;;;;;;;5.40;2.87;;;;;;;;;;5102449;28;20213;-64
2022/07/21 07:13:35;;;;;;;3.50;2.73;;;;;;;;;;5096618;28;20221;-64
2022/07/21 07:16:23;;;;;;;7.43;2.60;;;;;;;;;;5095021;28;20237;-64
2022/07/21 07:18:53;;;;;;;4.33;2.27;;;;;;;;;;5092650;28;20729;-64
2022/07/21 07:21:22;;;;;;;4.97;2.40;;;;;;;;;;5098561;28;20211;-64
2022/07/21 07:23:50;;;;;;;3.83;2.23;;;;;;;;;;5097278;28;20238;-64
2022/07/21 07:26:18;;;;;;;3.40;2.30;;;;;;;;;;5098825;28;20211;-64
2022/07/21 07:28:46;;;;;;;3.53;2.63;;;;;;;;;;5087383;28;20640;-64
2022/07/21 07:31:14;;;;;;;2.50;2.30;;;;;;;;;;5096781;28;20228;-64
2022/07/21 07:33:42;;;;;;;3.13;2.47;;;;;;;;;;5089123;28;20251;-64
2022/07/21 07:36:12;;;;;;;2.40;1.80;;;;;;;;;;5089478;28;20209;-64
2022/07/21 07:38:41;;;;;;;4.67;2.30;;;;;;;;;;5090843;28;20250;-64
2022/07/21 07:41:09;;;;;;;3.73;2.47;;;;;;;;;;5092855;28;20217;-64
2022/07/21 07:43:37;;;;;;;2.38;2.17;;;;;;;;;;5100607;28;20238;-64
2022/07/21 07:46:06;;;;;;;4.35;2.53;;;;;;;;;;5089825;28;20207;-64
2022/07/21 07:48:36;;;;;;;4.38;2.55;;;;;;;;;;5097895;28;20262;-64
2022/07/21 07:51:04;;;;;;;3.75;2.58;;;;;;;;;;5089998;28;20211;-64
2022/07/21 07:53:34;;;;;;;3.42;1.98;;;;;;;;;;5090603;28;20761;-64
2022/07/21 07:56:02;;;;;;;4.18;2.25;;;;;;;;;;5090618;28;20223;-64
2022/07/21 07:58:29;;;;;;;3.25;1.95;;;;;;;;;;5098102;28;20199;-64
2022/07/21 08:00:58;;;;;;;6.80;3.17;;;;;;;;;;5091952;28;20196;-64
2022/07/21 08:03:34;;;;;;;5.47;2.42;;;;;;;;;;5098165;28;20237;-64
2022/07/21 08:06:04;;;;;;;5.07;2.55;;;;;;;;;;5096091;28;20209;-64
2022/07/21 08:08:34;;;;;;;2.30;2.03;;;;;;;;;;5089041;28;20246;-64
2022/07/21 08:11:02;;;;;;;4.53;2.33;;;;;;;;;;5095883;28;20712;-64
2022/07/21 08:13:30;;;;;;;4.20;2.17;;;;;;;;;;5085541;28;20259;-64
2022/07/21 08:15:58;;;;;;;7.07;2.33;;;;;;;;;;5099824;28;20698;-64
2022/07/21 08:18:27;;;;;;;12.23;2.50;;;;;;;;;;5104628;28;20255;-64
2022/07/21 08:20:55;;;;;;;3.67;2.17;;;;;;;;;;5090362;28;20721;-64
2022/07/21 08:23:23;;;;;;;6.50;2.80;;;;;;;;;;5091999;28;20277;-64
2022/07/21 08:25:52;;;;;;;3.80;2.00;;;;;;;;;;5095335;28;20646;-64
2022/07/21 08:28:20;;;;;;;3.50;2.15;;;;;;;;;;5092417;28;20595;-64
2022/07/21 08:30:48;;;;;;;2.80;1.97;;;;;;;;;;5097952;28;20213;-64
2022/07/21 08:33:16;;;;;;;4.50;2.20;;;;;;;;;;5085711;28;20229;-64
2022/07/21 08:35:44;;;;;;;3.43;2.30;;;;;;;;;;5091136;28;20213;-64
2022/07/21 08:38:13;;;;;;;2.53;2.13;;;;;;;;;;5090051;28;20225;-61
2022/07/21 08:40:42;;;;;;;1.70;1.50;;;;;;;;;;5096604;28;20207;-64
2022/07/21 08:43:13;;;;;;;3.27;1.60;;;;;;;;;;5094967;28;20255;-65
2022/07/21 08:45:41;;;;;;;2.57;1.83;;;;;;;;;;5086483;28;20282;-65
2022/07/21 08:48:09;;;;;;;2.20;1.83;;;;;;;;;;5082955;28;20621;-64
2022/07/21 08:50:38;;;;;;;4.73;2.13;;;;;;;;;;5090155;28;20204;-64
2022/07/21 08:53:06;;;;;;;3.73;1.93;;;;;;;;;;5097129;28;20290;-64
2022/07/21 08:55:35;;;;;;;4.33;1.93;;;;;;;;;;5083526;28;20620;-64
2022/07/21 08:58:04;;;;;;;4.37;2.40;;;;;;;;;;5083779;28;20272;-65
2022/07/21 09:00:36;;;;;;;2.30;2.10;;;;;;;;;;5087024;28;20204;-64
2022/07/21 09:03:11;;;;;;;2.88;2.13;;;;;;;;;;5097542;28;20226;-65
2022/07/21 09:05:40;;;;;;;2.45;2.00;;;;;;;;;;5087187;28;20257;-65
2022/07/21 09:08:08;;;;;;;3.25;2.00;;;;;;;;;;5089819;28;20234;-64
2022/07/21 09:10:36;;;;;;;3.10;2.42;;;;;;;;;;5099765;28;20261;-65
2022/07/21 09:13:06;;;;;;;2.97;2.10;;;;;;;;;;5092478;28;20219;-65
2022/07/21 09:15:34;;;;;;;2.67;2.20;;;;;;;;;;5091993;28;20209;-65
2022/07/21 09:18:11;;;;;;;2.90;2.03;;;;;;;;;;5078475;28;20686;-65
2022/07/21 09:20:40;;;;;;;4.17;2.27;;;;;;;;;;5097913;28;20724;-64
2022/07/21 09:23:10;;;;;;;1.98;1.88;;;;;;;;;;5088365;28;20357;-65
2022/07/21 09:25:39;;;;;;;7.00;2.28;;;;;;;;;;5081781;28;20682;-65
2022/07/21 09:28:12;;;;;;;2.67;2.10;;;;;;;;;;5083012;28;20235;-65
2022/07/21 09:30:57;;;;;;;7.30;2.35;;;;;;;;;;5087281;28;20231;-65
2022/07/21 09:33:27;;;;;;;3.17;2.53;;;;;;;;;;5095467;28;20663;-64
2022/07/21 09:35:56;;;;;;;4.53;2.28;;;;;;;;;;5092687;28;20247;-64
2022/07/21 09:38:24;;;;;;;3.17;2.50;;;;;;;;;;5091592;28;20229;-65
2022/07/21 09:40:52;;;;;;;5.97;2.20;;;;;;;;;;5089369;28;20329;-64
2022/07/21 09:43:34;;;;;;;2.05;1.85;;;;;;;;;;5095406;28;20335;-64
2022/07/21 09:46:04;;;;;;;4.43;2.73;;;;;;;;;;5085782;28;20240;-65
2022/07/21 09:48:34;;;;;;;2.90;2.43;;;;;;;;;;5095326;28;20213;-65
2022/07/21 09:51:23;;;;;;;2.47;2.27;;;;;;;;;;5094229;28;20618;-65
2022/07/21 09:53:53;;;;;;;3.43;2.37;;;;;;;;;;5092094;28;20634;-64
2022/07/21 09:56:21;;;;;;;2.90;2.60;;;;;;;;;;5089159;28;20245;-65
2022/07/21 09:58:50;;;;;;;3.00;2.25;;;;;;;;;;5090299;28;20224;-64
2022/07/21 10:01:18;;;;;;;3.47;2.53;;;;;;;;;;5100628;28;20293;-65
2022/07/21 10:03:49;;;;;;;4.30;2.35;;;;;;;;;;5094623;28;20220;-65
2022/07/21 10:06:18;;;;;;;5.10;2.60;;;;;;;;;;5094108;28;20209;-65
2022/07/21 10:08:46;;;;;;;3.87;2.37;;;;;;;;;;5082204;28;20237;-63
2022/07/21 10:11:15;;;;;;;3.53;2.80;;;;;;;;;;5106747;28;20207;-64
2022/07/21 10:13:46;;;;;;;3.40;2.70;;;;;;;;;;5097327;28;20707;-66
2022/07/21 10:16:14;;;;;;;3.38;2.45;;;;;;;;;;5088878;28;20544;-64
2022/07/21 10:18:55;;;;;;;3.73;3.43;;;;;;;;;;5099539;28;20578;-63
2022/07/21 10:21:27;;;;;;;3.05;2.70;;;;;;;;;;5096047;28;20299;-63
2022/07/21 10:23:55;;;;;;;3.03;2.60;;;;;;;;;;5095731;28;20297;-63
2022/07/21 10:26:24;;;;;;;3.95;2.53;;;;;;;;;;5091561;28;20212;-64
2022/07/21 10:28:52;;;;;;;4.47;2.75;;;;;;;;;;5092488;28;20612;-64
2022/07/21 10:31:20;;;;;;;5.40;3.17;;;;;;;;;;5096765;28;20218;-64
2022/07/21 10:34:02;;;;;;;3.75;2.80;;;;;;;;;;5090449;28;20257;-63
2022/07/21 10:36:44;;;;;;;7.07;3.35;;;;;;;;;;5093654;28;20208;-63
2022/07/21 10:39:23;;;;;;;3.20;2.90;;;;;;;;;;5087118;28;20245;-65
2022/07/21 10:41:52;;;;;;;7.32;2.85;;;;;;;;;;5086641;28;20237;-63
2022/07/21 10:44:38;;;;;;;5.47;2.80;;;;;;;;;;5093420;28;20234;-64
2022/07/21 10:47:08;;;;;;;5.03;2.70;;;;;;;;;;5097187;28;20228;-63
2022/07/21 10:49:45;;;;;;;7.13;2.72;;;;;;;;;;5081644;28;20251;-63
2022/07/21 10:52:31;;;;;;;4.22;2.75;;;;;;;;;;5087998;28;20656;-64
2022/07/21 10:55:16;;;;;;;3.72;2.88;;;;;;;;;;5088901;28;20272;-64
2022/07/21 10:57:46;;;;;;;5.65;2.92;;;;;;;;;;5087771;28;20209;-64
2022/07/21 11:00:19;;;;;;;5.95;2.90;;;;;;;;;;5086234;28;20223;-63
2022/07/21 11:02:50;;;;;;;4.40;2.63;;;;;;;;;;5099277;28;20256;-63
2022/07/21 11:05:20;;;;;;;3.92;3.00;;;;;;;;;;5096877;28;20731;-64
2022/07/21 11:08:05;;;;;;;3.58;2.92;;;;;;;;;;5090079;28;20244;-64
2022/07/21 11:10:33;;;;;;;4.63;2.95;;;;;;;;;;5078111;28;20307;-64
2022/07/21 11:13:01;;;;;;;6.60;2.83;;;;;;;;;;5099781;28;20281;-64
2022/07/21 11:15:57;;;;;;;5.97;3.10;;;;;;;;;;5091320;28;20208;-64
2022/07/21 11:18:26;;;;;;;4.55;3.10;;;;;;;;;;5095372;28;20254;-64
2022/07/21 11:21:06;;;;;;;4.18;2.85;;;;;;;;;;5089064;28;20193;-63
2022/07/21 11:23:38;;;;;;;3.17;2.88;;;;;;;;;;5088834;28;20278;-64
2022/07/21 11:26:06;;;;;;;3.25;3.00;;;;;;;;;;5097599;28;20227;-63
2022/07/21 11:28:34;;;;;;;7.10;3.38;;;;;;;;;;5086443;28;20240;-64
2022/07/21 11:31:14;;;;;;;4.75;3.03;;;;;;;;;;5086800;28;20231;-64
2022/07/21 11:33:42;;;;;;;5.63;3.13;;;;;;;;;;5085940;28;20223;-64
2022/07/21 11:36:22;;;;;;;4.07;3.35;;;;;;;;;;5084792;28;20201;-64
2022/07/21 11:38:58;;;;;;;3.50;3.20;;;;;;;;;;5097672;28;20207;-64
2022/07/21 11:41:26;;;;;;;4.90;3.40;;;;;;;;;;5095699;28;20571;-64
2022/07/21 11:43:54;;;;;;;5.22;3.30;;;;;;;;;;5093276;28;20260;-63
2022/07/21 11:46:22;;;;;;;5.88;4.10;;;;;;;;;;5097945;28;20211;-64
2022/07/21 11:49:01;;;;;;;6.20;3.50;;;;;;;;;;5091488;28;20680;-64
2022/07/21 11:51:30;;;;;;;5.75;3.33;;;;;;;;;;5094384;28;20226;-64
2022/07/21 11:53:58;;;;;;;7.00;3.83;;;;;;;;;;5096586;28;20229;-64
2022/07/21 11:56:26;;;;;;;3.67;3.38;;;;;;;;;;5092757;28;20558;-64
2022/07/21 11:59:08;;;;;;;3.80;2.85;;;;;;;;;;5091473;28;20217;-63
2022/07/21 12:01:48;;;;;;;4.40;3.45;;;;;;;;;;5096652;28;20236;-63
2022/07/21 12:04:26;;;;;;;6.68;3.58;;;;;;;;;;5086484;28;20231;-63
2022/07/21 12:06:56;;;;;;;4.05;3.60;;;;;;;;;;5084815;28;20197;-63
2022/07/21 12:09:24;;;;;;;5.18;3.53;;;;;;;;;;5096578;28;20212;-63
2022/07/21 12:11:52;;;;;;;6.05;3.60;;;;;;;;;;5088198;28;20308;-63
2022/07/21 12:14:22;;;;;;;5.30;3.28;;;;;;;;;;5088218;28;20704;-63
2022/07/21 12:16:51;;;;;;;5.80;3.67;;;;;;;;;;5094942;28;20208;-63
2022/07/21 12:19:19;;;;;;;3.90;3.28;;;;;;;;;;5097916;28;20205;-63
2022/07/21 12:21:49;;;;;;;5.63;3.30;;;;;;;;;;5093986;28;20224;-63
2022/07/21 12:24:19;;;;;;;5.53;3.97;;;;;;;;;;5091928;28;20310;-63
2022/07/21 12:26:47;;;;;;;3.75;3.38;;;;;;;;;;5092091;28;20275;-63
2022/07/21 12:29:25;;;;;;;5.13;3.38;;;;;;;;;;5090871;28;20254;-63
2022/07/21 12:31:53;;;;;;;4.38;3.53;;;;;;;;;;5085166;28;20621;-63
2022/07/21 12:34:24;;;;;;;4.45;3.33;;;;;;;;;;5095606;28;20268;-63
2022/07/21 12:36:54;;;;;;;9.38;4.03;;;;;;;;;;5078913;28;20716;-63
2022/07/21 12:42:11;;;;;;;4.03;3.67;;;;;;;;;;5092461;28;20250;-64
2022/07/21 12:44:39;;;;;;;5.22;3.65;;;;;;;;;;5095131;28;20670;-63
2022/07/21 12:47:18;;;;;;;6.35;3.58;;;;;;;;;;5095527;28;20302;-63
2022/07/21 12:49:59;;;;;;;4.18;3.47;;;;;;;;;;5087199;28;20281;-63
2022/07/21 12:52:47;;;;;;;3.85;3.38;;;;;;;;;;5098904;28;20295;-64
2022/07/21 12:55:16;;;;;;;4.15;3.75;;;;;;;;;;5113971;28;20211;-63
2022/07/21 12:57:44;;;;;;;5.75;4.20;;;;;;;;;;5088416;28;20197;-64
2022/07/21 13:00:13;;;;;;;4.65;3.83;;;;;;;;;;5099006;28;20228;-64
2022/07/21 13:02:48;;;;;;;7.63;4.05;;;;;;;;;;5096535;28;20201;-63
2022/07/21 13:05:16;;;;;;;5.65;3.88;;;;;;;;;;5093651;28;20204;-64
2022/07/21 13:07:44;;;;;;;7.03;4.13;;;;;;;;;;5092256;28;20277;-64
2022/07/21 13:10:13;;;;;;;4.03;3.53;;;;;;;;;;5103176;28;20232;-63
2022/07/21 13:12:42;;;;;;;4.40;3.72;;;;;;;;;;5096980;28;20198;-64
2022/07/21 13:15:10;;;;;;;4.38;3.50;;;;;;;;;;5097380;28;20228;-63
2022/07/21 13:17:38;;;;;;;5.05;3.47;;;;;;;;;;5102988;28;20201;-63
2022/07/21 13:20:07;;;;;;;5.15;3.78;;;;;;;;;;5097417;28;20198;-64
2022/07/21 13:22:35;;;;;;;4.50;3.92;;;;;;;;;;5097745;28;20268;-63
2022/07/21 13:25:03;;;;;;;7.72;3.85;;;;;;;;;;5100800;28;20233;-63
2022/07/21 13:27:31;;;;;;;9.05;3.85;;;;;;;;;;5105379;28;20250;-63
2022/07/21 13:30:01;;;;;;;4.43;4.03;;;;;;;;;;5106029;28;20706;-63
2022/07/21 13:32:30;;;;;;;4.40;3.60;;;;;;;;;;5110924;28;20230;-63
2022/07/21 13:34:57;;;;;;;5.80;3.78;;;;;;;;;;5088908;28;20232;-63
2022/07/21 13:37:45;;;;;;;5.03;3.85;;;;;;;;;;5093977;28;20204;-63
2022/07/21 13:40:13;;;;;;;4.30;3.90;;;;;;;;;;5111662;28;20243;-63
2022/07/21 13:43:01;;;;;;;5.10;3.63;;;;;;;;;;5099366;28;20213;-63
2022/07/21 13:45:51;;;;;;;5.15;3.65;;;;;;;;;;5097704;28;20212;-64
2022/07/21 13:48:19;;;;;;;4.15;3.85;;;;;;;;;;5107698;28;20244;-63
2022/07/21 13:50:47;;;;;;;3.75;3.45;;;;;;;;;;5096411;28;20209;-64
2022/07/21 13:53:15;;;;;;;5.25;4.00;;;;;;;;;;5100701;28;20256;-63
2022/07/21 13:55:43;;;;;;;3.72;3.42;;;;;;;;;;5095402;28;20239;-64
2022/07/21 13:58:11;;;;;;;4.43;4.00;;;;;;;;;;5100434;28;20206;-63
2022/07/21 14:00:39;;;;;;;5.10;4.18;;;;;;;;;;5092890;28;20235;-63
2022/07/21 14:03:12;;;;;;;4.75;4.10;;;;;;;;;;5099519;28;20263;-63
2022/07/21 14:05:40;;;;;;;5.13;3.50;;;;;;;;;;5099647;28;20205;-63
2022/07/21 14:08:08;;;;;;;5.45;3.72;;;;;;;;;;5098081;28;20215;-63
2022/07/21 14:10:36;;;;;;;3.90;3.50;;;;;;;;;;5094568;28;20229;-63
2022/07/21 14:13:05;;;;;;;4.72;3.40;;;;;;;;;;5093848;28;20225;-63
2022/07/21 14:15:34;;;;;;;4.65;3.80;;;;;;;;;;5087081;28;20683;-64
2022/07/21 14:18:02;;;;;;;3.60;3.22;;;;;;;;;;5082390;28;20206;-63
2022/07/21 14:20:31;;;;;;;4.22;3.83;;;;;;;;;;5095992;28;20201;-64
2022/07/21 14:22:59;;;;;;;7.72;3.45;;;;;;;;;;5086891;28;20274;-63
2022/07/21 14:25:27;;;;;;;4.80;3.65;;;;;;;;;;5098804;28;20263;-63
2022/07/21 14:27:57;;;;;;;6.18;3.60;;;;;;;;;;5092763;28;20209;-63
2022/07/21 14:30:27;;;;;;;4.10;3.30;;;;;;;;;;5093986;28;20213;-64
2022/07/21 14:32:56;;;;;;;4.15;3.63;;;;;;;;;;5088633;28;20703;-63
2022/07/21 14:35:25;;;;;;;3.90;3.35;;;;;;;;;;5095280;28;20240;-63
2022/07/21 14:37:55;;;;;;;3.80;3.50;;;;;;;;;;5079827;28;20213;-63
2022/07/21 14:40:23;;;;;;;4.80;3.88;;;;;;;;;;5082898;28;20291;-63
2022/07/21 14:42:52;;;;;;;4.57;3.83;;;;;;;;;;5090640;28;20205;-63
2022/07/21 14:45:21;;;;;;;4.22;3.47;;;;;;;;;;5099747;28;20287;-63
2022/07/21 14:47:51;;;;;;;7.10;3.47;;;;;;;;;;5092476;28;20289;-63
2022/07/21 14:50:20;;;;;;;7.80;4.03;;;;;;;;;;5093175;28;20209;-64
2022/07/21 14:52:55;;;;;;;5.78;4.00;;;;;;;;;;5085057;28;20689;-63
2022/07/21 14:55:24;;;;;;;5.55;3.80;;;;;;;;;;5079469;28;20363;-63
2022/07/21 14:57:53;;;;;;;6.95;3.88;;;;;;;;;;5093179;28;20215;-64
2022/07/21 15:00:23;;;;;;;4.22;3.83;;;;;;;;;;5084880;28;20209;-63
2022/07/21 15:02:51;;;;;;;3.88;3.17;;;;;;;;;;5079132;28;20217;-64
2022/07/21 15:05:19;;;;;;;6.32;3.95;;;;;;;;;;5086508;28;20232;-63